Time;durP1;ratioP1;P1;durP2;ratioP2;P2;SDS_P1;SDS_P2;PMS_P1;PMS_P2;Temp;Humidity;BMP_temperature;BMP_pressure;BME280_temperature;BME280_humidity;BME280_pressure;Samples;Min_cycle;Max_cycle;Signal;HPM_P1;HPM_P2
2022/06/25 00:01:29;;;;;;;44.30;26.55;;;;;;;;;;5030319;28;20030;-77
2022/06/25 00:03:55;;;;;;;37.35;25.35;;;;;;;;;;5031966;28;20116;-77
2022/06/25 00:06:21;;;;;;;33.58;24.25;;;;;;;;;;5031693;28;20025;-77
2022/06/25 00:08:48;;;;;;;41.53;24.55;;;;;;;;;;5032261;28;20378;-76
2022/06/25 00:14:09;;;;;;;42.03;26.45;;;;;;;;;;5032121;28;20067;-78
2022/06/25 00:16:35;;;;;;;48.10;28.77;;;;;;;;;;5033958;28;20131;-77
2022/06/25 00:19:01;;;;;;;45.17;28.05;;;;;;;;;;5045014;28;20048;-77
2022/06/25 00:21:28;;;;;;;48.80;31.77;;;;;;;;;;5050611;28;20025;-76
2022/06/25 00:23:54;;;;;;;47.70;29.70;;;;;;;;;;5049567;28;20037;-76
2022/06/25 00:26:20;;;;;;;42.13;28.95;;;;;;;;;;5046933;28;20028;-78
2022/06/25 00:28:46;;;;;;;51.50;31.02;;;;;;;;;;5051230;28;20021;-78
2022/06/25 00:31:12;;;;;;;44.60;30.05;;;;;;;;;;5060265;28;20025;-76
2022/06/25 00:33:38;;;;;;;46.10;31.45;;;;;;;;;;5037380;28;20030;-75
2022/06/25 00:36:04;;;;;;;51.70;30.67;;;;;;;;;;5032741;28;20033;-73
2022/06/25 00:38:30;;;;;;;42.83;29.48;;;;;;;;;;5033850;28;20021;-75
2022/06/25 00:40:56;;;;;;;51.22;32.15;;;;;;;;;;5033475;28;20445;-74
2022/06/25 00:43:22;;;;;;;43.00;28.02;;;;;;;;;;5035127;28;20083;-75
2022/06/25 00:45:48;;;;;;;45.70;30.80;;;;;;;;;;5034577;28;20070;-75
2022/06/25 00:48:14;;;;;;;54.22;30.77;;;;;;;;;;5033556;28;20022;-75
2022/06/25 00:50:40;;;;;;;45.95;29.83;;;;;;;;;;5034787;28;20028;-75
2022/06/25 00:53:06;;;;;;;54.30;30.98;;;;;;;;;;5034931;28;20505;-75
2022/06/25 00:55:35;;;;;;;57.35;35.88;;;;;;;;;;5034648;28;20037;-75
2022/06/25 00:58:02;;;;;;;48.58;30.52;;;;;;;;;;5033522;28;20523;-75
2022/06/25 01:00:28;;;;;;;54.65;31.40;;;;;;;;;;5034583;28;20018;-75
2022/06/25 01:02:54;;;;;;;42.30;29.63;;;;;;;;;;5031609;28;20099;-75
2022/06/25 01:05:20;;;;;;;48.80;31.98;;;;;;;;;;5034423;28;20633;-76
2022/06/25 01:07:47;;;;;;;45.47;31.58;;;;;;;;;;5033134;28;20018;-75
2022/06/25 01:10:13;;;;;;;44.28;29.17;;;;;;;;;;5034406;28;20049;-75
2022/06/25 01:12:40;;;;;;;44.00;29.67;;;;;;;;;;5035015;28;20027;-76
2022/06/25 01:15:10;;;;;;;49.28;33.83;;;;;;;;;;5034902;28;20053;-76
2022/06/25 01:17:41;;;;;;;54.65;34.38;;;;;;;;;;5034533;28;20424;-76
2022/06/25 01:20:07;;;;;;;52.70;36.40;;;;;;;;;;5035016;28;20036;-75
2022/06/25 01:22:33;;;;;;;64.45;40.40;;;;;;;;;;5041160;28;20033;-76
2022/06/25 01:25:00;;;;;;;62.05;41.78;;;;;;;;;;5041180;28;20040;-74
2022/06/25 01:27:26;;;;;;;61.22;35.95;;;;;;;;;;5040309;28;20506;-75
2022/06/25 01:29:53;;;;;;;59.05;37.92;;;;;;;;;;5040285;28;20026;-76
2022/06/25 01:32:19;;;;;;;58.25;38.30;;;;;;;;;;5038788;28;20053;-76
2022/06/25 01:34:45;;;;;;;61.45;42.47;;;;;;;;;;5040228;28;20032;-76
2022/06/25 01:37:10;;;;;;;72.93;43.53;;;;;;;;;;5034360;28;20395;-75
2022/06/25 01:39:36;;;;;;;67.50;44.28;;;;;;;;;;5035481;28;20025;-76
2022/06/25 01:42:03;;;;;;;55.70;39.45;;;;;;;;;;5037627;28;20069;-75
2022/06/25 01:44:29;;;;;;;64.43;43.22;;;;;;;;;;5036918;28;20045;-76
2022/06/25 01:46:58;;;;;;;60.63;39.30;;;;;;;;;;5036788;28;20026;-76
2022/06/25 01:49:24;;;;;;;60.13;41.50;;;;;;;;;;5036662;28;20052;-76
2022/06/25 01:51:50;;;;;;;65.53;44.10;;;;;;;;;;5034063;28;20475;-76
2022/06/25 01:54:16;;;;;;;66.50;41.35;;;;;;;;;;5032569;28;20032;-76
2022/06/25 01:56:42;;;;;;;62.72;42.47;;;;;;;;;;5033806;28;20103;-76
2022/06/25 01:59:08;;;;;;;58.42;39.72;;;;;;;;;;5033147;28;20033;-75
2022/06/25 02:01:35;;;;;;;61.85;40.10;;;;;;;;;;5034214;28;20030;-76
2022/06/25 02:04:01;;;;;;;59.47;40.22;;;;;;;;;;5034135;28;20450;-76
2022/06/25 02:06:27;;;;;;;61.90;40.03;;;;;;;;;;5033716;28;20054;-76
2022/06/25 02:08:53;;;;;;;56.85;38.72;;;;;;;;;;5033785;28;20073;-74
2022/06/25 02:11:19;;;;;;;82.88;47.15;;;;;;;;;;5033968;28;20021;-77
2022/06/25 02:13:45;;;;;;;67.35;43.55;;;;;;;;;;5034536;28;20048;-76
2022/06/25 02:16:11;;;;;;;59.10;40.55;;;;;;;;;;5035572;28;20018;-76
2022/06/25 02:18:37;;;;;;;83.55;49.25;;;;;;;;;;5046816;28;20029;-75
2022/06/25 02:21:03;;;;;;;77.97;45.53;;;;;;;;;;5036873;28;20030;-76
2022/06/25 02:23:29;;;;;;;62.97;41.80;;;;;;;;;;5033741;28;20136;-75
2022/06/25 02:25:55;;;;;;;62.90;44.70;;;;;;;;;;5033460;28;20026;-75
2022/06/25 02:28:21;;;;;;;65.35;42.88;;;;;;;;;;5032406;28;20474;-74
2022/06/25 02:30:47;;;;;;;60.60;41.67;;;;;;;;;;5033072;28;20029;-76
2022/06/25 02:33:14;;;;;;;66.55;45.00;;;;;;;;;;5032952;28;20036;-76
2022/06/25 02:35:41;;;;;;;64.28;45.40;;;;;;;;;;5032751;28;20053;-76
2022/06/25 02:38:07;;;;;;;69.43;45.22;;;;;;;;;;5033349;28;20072;-76
2022/06/25 02:40:33;;;;;;;69.95;45.17;;;;;;;;;;5034077;28;20505;-76
2022/06/25 02:43:01;;;;;;;66.63;46.65;;;;;;;;;;5034072;28;20029;-76
2022/06/25 02:45:27;;;;;;;74.68;49.97;;;;;;;;;;5033779;28;20028;-75
2022/06/25 02:47:53;;;;;;;78.80;51.80;;;;;;;;;;5034685;28;20025;-75
2022/06/25 02:50:19;;;;;;;79.55;52.42;;;;;;;;;;5034810;28;20040;-75
2022/06/25 02:52:45;;;;;;;78.30;52.15;;;;;;;;;;5039873;28;20104;-74
2022/06/25 02:55:12;;;;;;;93.75;56.42;;;;;;;;;;5051360;28;20029;-74
2022/06/25 03:00:22;;;;;;;81.45;53.97;;;;;;;;;;5054372;28;20117;-74
2022/06/25 03:02:48;;;;;;;82.15;54.60;;;;;;;;;;5056243;28;20037;-75
2022/06/25 03:05:14;;;;;;;93.75;60.13;;;;;;;;;;5048023;28;20025;-72
2022/06/25 03:07:40;;;;;;;86.47;56.08;;;;;;;;;;5031752;28;20470;-73
2022/06/25 03:10:06;;;;;;;101.72;62.90;;;;;;;;;;5032637;28;20470;-74
2022/06/25 03:12:32;;;;;;;98.88;60.25;;;;;;;;;;5032621;28;20022;-74
2022/06/25 03:14:58;;;;;;;88.15;57.78;;;;;;;;;;5032537;28;20117;-74
2022/06/25 03:17:24;;;;;;;90.28;57.38;;;;;;;;;;5031089;28;20024;-74
2022/06/25 03:19:50;;;;;;;93.05;59.65;;;;;;;;;;5032308;28;20397;-74
2022/06/25 03:22:16;;;;;;;86.57;54.33;;;;;;;;;;5031279;28;20394;-74
2022/06/25 03:24:42;;;;;;;88.70;56.83;;;;;;;;;;5032511;28;20490;-74
2022/06/25 03:27:08;;;;;;;87.60;55.40;;;;;;;;;;5032273;28;20104;-74
2022/06/25 03:29:34;;;;;;;83.55;54.13;;;;;;;;;;5032715;28;20049;-75
2022/06/25 03:32:00;;;;;;;82.22;53.65;;;;;;;;;;5034134;28;20040;-74
2022/06/25 03:34:26;;;;;;;79.35;53.97;;;;;;;;;;5035738;28;20033;-74
2022/06/25 03:36:52;;;;;;;86.40;53.83;;;;;;;;;;5036109;28;20032;-73
2022/06/25 03:39:18;;;;;;;86.63;57.63;;;;;;;;;;5036568;28;20025;-73
2022/06/25 03:41:44;;;;;;;83.88;57.55;;;;;;;;;;5031980;28;20461;-73
2022/06/25 03:44:10;;;;;;;85.50;58.08;;;;;;;;;;5030814;28;20029;-74
2022/06/25 03:46:37;;;;;;;76.78;53.97;;;;;;;;;;5031702;28;20398;-73
2022/06/25 03:49:04;;;;;;;83.97;56.08;;;;;;;;;;5032123;28;20108;-73
2022/06/25 03:51:30;;;;;;;86.00;54.53;;;;;;;;;;5031879;28;20037;-75
2022/06/25 03:53:56;;;;;;;80.18;51.97;;;;;;;;;;5033973;28;20514;-75
2022/06/25 03:56:22;;;;;;;78.88;53.05;;;;;;;;;;5035851;28;20663;-75
2022/06/25 03:58:48;;;;;;;72.78;48.70;;;;;;;;;;5036049;28;20022;-75
2022/06/25 04:01:15;;;;;;;83.20;53.60;;;;;;;;;;5035699;28;20498;-75
2022/06/25 04:03:41;;;;;;;69.10;48.35;;;;;;;;;;5035067;28;20497;-76
2022/06/25 04:06:08;;;;;;;67.00;46.78;;;;;;;;;;5037113;28;20028;-74
2022/06/25 04:08:33;;;;;;;67.32;45.53;;;;;;;;;;5038311;28;20025;-74
2022/06/25 04:11:00;;;;;;;61.92;43.50;;;;;;;;;;5036841;28;20029;-75
2022/06/25 04:13:26;;;;;;;69.72;47.25;;;;;;;;;;5035102;28;20076;-75
2022/06/25 04:15:52;;;;;;;69.03;47.97;;;;;;;;;;5035307;28;20030;-75
2022/06/25 04:18:18;;;;;;;73.15;48.63;;;;;;;;;;5035523;28;20450;-74
2022/06/25 04:20:45;;;;;;;76.18;49.10;;;;;;;;;;5035474;28;20072;-75
2022/06/25 04:23:11;;;;;;;82.32;53.65;;;;;;;;;;5035519;28;20025;-73
2022/06/25 04:25:37;;;;;;;75.82;46.70;;;;;;;;;;5035227;28;20022;-74
2022/06/25 04:30:48;;;;;;;66.55;44.97;;;;;;;;;;5035347;28;20091;-73
2022/06/25 04:33:14;;;;;;;72.30;47.08;;;;;;;;;;5035239;28;20025;-73
2022/06/25 04:35:40;;;;;;;70.18;48.10;;;;;;;;;;5035042;28;20025;-74
2022/06/25 04:38:07;;;;;;;66.57;44.15;;;;;;;;;;5035271;28;20025;-75
2022/06/25 04:40:33;;;;;;;61.30;42.85;;;;;;;;;;5033942;28;20387;-75
2022/06/25 04:42:59;;;;;;;64.20;44.90;;;;;;;;;;5034997;28;20029;-75
2022/06/25 04:45:25;;;;;;;59.35;42.13;;;;;;;;;;5033465;28;20360;-75
2022/06/25 04:47:51;;;;;;;69.47;45.90;;;;;;;;;;5035341;28;20041;-74
2022/06/25 04:50:17;;;;;;;69.10;45.15;;;;;;;;;;5033858;28;20111;-75
2022/06/25 04:52:43;;;;;;;65.68;44.17;;;;;;;;;;5035706;28;20087;-75
2022/06/25 04:55:09;;;;;;;67.97;47.00;;;;;;;;;;5035252;28;20041;-76
2022/06/25 04:57:35;;;;;;;68.75;46.85;;;;;;;;;;5034902;28;20029;-76
2022/06/25 05:00:01;;;;;;;65.22;41.92;;;;;;;;;;5035344;28;20022;-74
2022/06/25 05:02:27;;;;;;;60.30;42.72;;;;;;;;;;5035063;28;20053;-75
2022/06/25 05:04:53;;;;;;;60.40;40.50;;;;;;;;;;5034338;28;20375;-75
2022/06/25 05:07:19;;;;;;;63.10;42.22;;;;;;;;;;5034703;28;20017;-75
2022/06/25 05:09:45;;;;;;;61.38;42.17;;;;;;;;;;5036693;28;20109;-74
2022/06/25 05:13:11;;;;;;;65.00;40.67;;;;;;;;;;5036112;28;20565;-74
2022/06/25 05:14:58;;;;;;;62.22;42.92;;;;;;;;;;5036544;28;20532;-76
2022/06/25 05:17:24;;;;;;;65.30;43.67;;;;;;;;;;5035789;28;20499;-75
2022/06/25 05:19:50;;;;;;;58.55;41.20;;;;;;;;;;5035161;28;20024;-75
2022/06/25 05:22:16;;;;;;;62.53;38.83;;;;;;;;;;5034722;28;20029;-75
2022/06/25 05:24:41;;;;;;;56.97;36.28;;;;;;;;;;5034803;28;20021;-75
2022/06/25 05:27:07;;;;;;;60.50;41.08;;;;;;;;;;5036717;28;20052;-75
2022/06/25 05:29:33;;;;;;;54.10;36.97;;;;;;;;;;5040794;28;20026;-73
2022/06/25 05:31:59;;;;;;;55.47;37.72;;;;;;;;;;5038872;28;20037;-74
2022/06/25 05:34:25;;;;;;;46.53;32.33;;;;;;;;;;5041022;28;20037;-75
2022/06/25 05:36:51;;;;;;;42.03;30.00;;;;;;;;;;5047311;28;20014;-76
2022/06/25 05:39:17;;;;;;;45.67;32.92;;;;;;;;;;5044084;28;20048;-74
2022/06/25 05:41:43;;;;;;;44.70;30.73;;;;;;;;;;5039586;28;20025;-75
2022/06/25 05:44:09;;;;;;;41.05;27.05;;;;;;;;;;5039926;28;20022;-74
2022/06/25 05:46:35;;;;;;;41.28;28.27;;;;;;;;;;5041053;28;20121;-75
2022/06/25 05:49:01;;;;;;;42.40;29.15;;;;;;;;;;5037072;28;20022;-75
2022/06/25 05:51:27;;;;;;;43.15;27.77;;;;;;;;;;5034543;28;20025;-75
2022/06/25 05:53:53;;;;;;;39.92;26.88;;;;;;;;;;5034839;28;20061;-75
2022/06/25 05:56:19;;;;;;;40.05;25.83;;;;;;;;;;5032708;28;20053;-74
2022/06/25 05:58:45;;;;;;;38.72;28.95;;;;;;;;;;5034204;28;20087;-75
2022/06/25 06:01:11;;;;;;;39.55;28.75;;;;;;;;;;5034260;28;20021;-74
2022/06/25 06:03:37;;;;;;;31.80;24.42;;;;;;;;;;5034185;28;20025;-76
2022/06/25 06:06:03;;;;;;;33.92;23.45;;;;;;;;;;5034072;28;20029;-75
2022/06/25 06:08:29;;;;;;;36.35;24.75;;;;;;;;;;5034160;28;20097;-75
2022/06/25 06:10:56;;;;;;;34.03;24.30;;;;;;;;;;5034289;28;20091;-76
2022/06/25 06:13:22;;;;;;;32.63;22.33;;;;;;;;;;5033795;28;20025;-77
2022/06/25 06:15:48;;;;;;;30.60;23.23;;;;;;;;;;5033601;28;20037;-76
2022/06/25 06:18:14;;;;;;;25.83;18.08;;;;;;;;;;5035069;28;20045;-75
2022/06/25 06:20:40;;;;;;;22.52;17.40;;;;;;;;;;5037182;28;20025;-76
2022/06/25 06:23:06;;;;;;;27.15;19.13;;;;;;;;;;5036560;28;20030;-76
2022/06/25 06:25:32;;;;;;;25.02;17.98;;;;;;;;;;5037192;28;20022;-76
2022/06/25 06:27:58;;;;;;;31.92;19.08;;;;;;;;;;5035652;28;20024;-76
2022/06/25 06:30:24;;;;;;;23.73;17.92;;;;;;;;;;5032375;28;20033;-75
2022/06/25 06:32:50;;;;;;;31.27;22.85;;;;;;;;;;5033674;22;20050;-72
2022/06/25 06:35:16;;;;;;;28.38;20.48;;;;;;;;;;5013179;28;20022;-71
2022/06/25 06:37:42;;;;;;;25.70;18.35;;;;;;;;;;5013063;28;20022;-72
2022/06/25 06:40:08;;;;;;;25.45;18.02;;;;;;;;;;5013096;28;20022;-71
2022/06/25 06:42:35;;;;;;;26.95;18.83;;;;;;;;;;5012509;28;20403;-73
2022/06/25 06:45:01;;;;;;;24.92;18.08;;;;;;;;;;5011822;28;20224;-72
2022/06/25 06:47:27;;;;;;;23.70;16.95;;;;;;;;;;5013612;28;20138;-73
2022/06/25 06:49:53;;;;;;;22.02;14.75;;;;;;;;;;5016546;28;20017;-73
2022/06/25 06:52:19;;;;;;;18.88;14.52;;;;;;;;;;5012986;28;20026;-72
2022/06/25 06:54:45;;;;;;;22.60;14.13;;;;;;;;;;5012697;28;20068;-73
2022/06/25 06:57:11;;;;;;;19.92;13.77;;;;;;;;;;5012348;28;20030;-72
2022/06/25 06:59:37;;;;;;;17.95;13.20;;;;;;;;;;5012973;28;20588;-72
2022/06/25 07:02:03;;;;;;;16.15;11.02;;;;;;;;;;5013064;28;20029;-71
2022/06/25 07:04:29;;;;;;;17.70;10.90;;;;;;;;;;5013716;28;20041;-72
2022/06/25 07:06:55;;;;;;;14.77;11.07;;;;;;;;;;5012702;28;20030;-72
2022/06/25 07:09:21;;;;;;;14.07;9.35;;;;;;;;;;5011255;28;20050;-71
2022/06/25 07:11:47;;;;;;;14.60;8.27;;;;;;;;;;5012242;28;20068;-70
2022/06/25 07:14:13;;;;;;;15.85;8.63;;;;;;;;;;5012778;28;20026;-72
2022/06/25 07:16:40;;;;;;;12.10;8.38;;;;;;;;;;5012125;28;20075;-70
2022/06/25 07:19:06;;;;;;;10.57;7.25;;;;;;;;;;5012530;28;20037;-73
2022/06/25 07:21:32;;;;;;;9.85;6.45;;;;;;;;;;5012354;28;20030;-71
2022/06/25 07:23:58;;;;;;;8.27;6.03;;;;;;;;;;5012331;28;20026;-72
2022/06/25 07:26:25;;;;;;;12.88;6.72;;;;;;;;;;5013391;28;20489;-72
2022/06/25 07:28:54;;;;;;;11.27;5.85;;;;;;;;;;5012268;28;20056;-71
2022/06/25 07:31:20;;;;;;;11.45;5.38;;;;;;;;;;5013731;28;20033;-72
2022/06/25 07:33:46;;;;;;;5.60;4.40;;;;;;;;;;5015909;28;20018;-72
2022/06/25 07:36:13;;;;;;;7.78;4.90;;;;;;;;;;5015022;28;20026;-74
2022/06/25 07:38:39;;;;;;;7.88;4.63;;;;;;;;;;5013666;28;20057;-72
2022/06/25 07:41:05;;;;;;;6.50;5.05;;;;;;;;;;5016881;28;20033;-73
2022/06/25 07:43:31;;;;;;;7.30;5.28;;;;;;;;;;5015869;28;20403;-73
2022/06/25 07:45:58;;;;;;;6.65;4.28;;;;;;;;;;5012059;28;20018;-71
2022/06/25 07:48:24;;;;;;;8.52;4.82;;;;;;;;;;5011857;28;20029;-72
2022/06/25 07:53:35;;;;;;;11.40;5.20;;;;;;;;;;5010614;28;20037;-73
2022/06/25 07:56:01;;;;;;;11.55;7.13;;;;;;;;;;5010355;28;20033;-72
2022/06/25 07:58:27;;;;;;;8.95;4.97;;;;;;;;;;5012809;28;20026;-74
2022/06/25 08:00:54;;;;;;;6.40;4.78;;;;;;;;;;5010469;28;20022;-72
2022/06/25 08:03:20;;;;;;;7.05;5.32;;;;;;;;;;5010807;28;20045;-73
2022/06/25 08:05:47;;;;;;;8.77;5.30;;;;;;;;;;5010397;28;20022;-73
2022/06/25 08:08:13;;;;;;;12.07;5.13;;;;;;;;;;5011431;28;20028;-72
2022/06/25 08:10:40;;;;;;;9.82;5.47;;;;;;;;;;5009481;28;20014;-73
2022/06/25 08:13:06;;;;;;;6.75;5.15;;;;;;;;;;5013914;28;20026;-72
2022/06/25 08:15:32;;;;;;;7.97;5.65;;;;;;;;;;5017409;28;20033;-73
2022/06/25 08:17:58;;;;;;;7.80;5.00;;;;;;;;;;5010799;28;20026;-74
2022/06/25 08:20:24;;;;;;;8.10;4.63;;;;;;;;;;5008924;28;20052;-73
2022/06/25 08:22:50;;;;;;;9.07;5.15;;;;;;;;;;5010378;28;20530;-71
2022/06/25 08:25:16;;;;;;;10.85;5.53;;;;;;;;;;5010309;28;20441;-73
2022/06/25 08:27:53;;;;;;;9.50;4.60;;;;;;;;;;5010406;28;20029;-74
2022/06/25 08:30:19;;;;;;;7.93;4.70;;;;;;;;;;5009550;28;20505;-73
2022/06/25 08:32:45;;;;;;;6.68;4.88;;;;;;;;;;5010071;28;20038;-72
2022/06/25 08:35:12;;;;;;;7.28;4.97;;;;;;;;;;5010049;28;20025;-73
2022/06/25 08:37:38;;;;;;;22.75;6.03;;;;;;;;;;5009701;28;20172;-72
2022/06/25 08:40:06;;;;;;;9.10;5.18;;;;;;;;;;5011532;28;20076;-72
2022/06/25 08:42:32;;;;;;;10.85;5.22;;;;;;;;;;5014235;28;20483;-72
2022/06/25 08:44:58;;;;;;;8.60;5.32;;;;;;;;;;5015569;28;20447;-73
2022/06/25 08:47:24;;;;;;;11.95;6.88;;;;;;;;;;5014644;28;20489;-75
2022/06/25 08:49:52;;;;;;;8.75;6.45;;;;;;;;;;5015913;28;20022;-73
2022/06/25 08:52:19;;;;;;;10.23;6.50;;;;;;;;;;5015230;28;20092;-74
2022/06/25 08:54:46;;;;;;;9.90;6.05;;;;;;;;;;5015284;28;20050;-72
2022/06/25 08:57:15;;;;;;;10.40;5.60;;;;;;;;;;5022117;28;20065;-74
2022/06/25 08:59:42;;;;;;;7.93;5.43;;;;;;;;;;5017363;28;20407;-72
2022/06/25 09:02:08;;;;;;;7.80;5.30;;;;;;;;;;5014860;28;20026;-72
2022/06/25 09:04:34;;;;;;;6.75;4.60;;;;;;;;;;5015020;28;20026;-72
2022/06/25 09:07:13;;;;;;;9.82;4.75;;;;;;;;;;5013619;28;20479;-72
2022/06/25 09:09:39;;;;;;;8.88;5.22;;;;;;;;;;5021633;28;20025;-73
2022/06/25 09:12:08;;;;;;;12.68;5.70;;;;;;;;;;5014725;28;20030;-73
2022/06/25 09:14:35;;;;;;;7.18;5.82;;;;;;;;;;5014973;28;20022;-73
2022/06/25 09:17:06;;;;;;;11.02;5.22;;;;;;;;;;5013886;28;20340;-73
2022/06/25 09:19:40;;;;;;;13.88;8.60;;;;;;;;;;5014998;28;20109;-73
2022/06/25 09:22:11;;;;;;;10.73;6.27;;;;;;;;;;5016888;28;20022;-73
2022/06/25 09:24:45;;;;;;;10.88;6.60;;;;;;;;;;5013782;28;20033;-73
2022/06/25 09:27:11;;;;;;;9.82;6.40;;;;;;;;;;5014975;28;20482;-73
2022/06/25 09:29:45;;;;;;;9.20;5.97;;;;;;;;;;5014980;28;20030;-73
2022/06/25 09:32:13;;;;;;;11.57;7.10;;;;;;;;;;5014410;28;20042;-73
2022/06/25 09:34:39;;;;;;;9.70;6.47;;;;;;;;;;5014948;28;20028;-74
2022/06/25 09:37:19;;;;;;;10.57;6.40;;;;;;;;;;5014079;28;20041;-73
2022/06/25 09:39:46;;;;;;;9.70;5.90;;;;;;;;;;5014586;28;20438;-74
2022/06/25 09:42:22;;;;;;;9.52;5.43;;;;;;;;;;5015208;28;20394;-74
2022/06/25 09:44:48;;;;;;;5.70;4.30;;;;;;;;;;5012446;28;20062;-74
2022/06/25 09:47:14;;;;;;;9.57;5.25;;;;;;;;;;5013703;28;20467;-74
2022/06/25 09:49:41;;;;;;;12.27;6.05;;;;;;;;;;5013940;28;20026;-73
2022/06/25 09:52:07;;;;;;;7.28;5.18;;;;;;;;;;5012507;28;20537;-73
2022/06/25 09:54:33;;;;;;;4.28;3.17;;;;;;;;;;5015627;28;20030;-74
2022/06/25 09:57:00;;;;;;;5.55;3.47;;;;;;;;;;5017997;28;20117;-74
2022/06/25 09:59:27;;;;;;;7.75;4.20;;;;;;;;;;5013533;28;20426;-74
2022/06/25 10:01:53;;;;;;;5.63;3.95;;;;;;;;;;5014658;28;20554;-73
2022/06/25 10:04:20;;;;;;;4.45;3.45;;;;;;;;;;5013877;28;20082;-73
2022/06/25 10:06:47;;;;;;;4.55;3.10;;;;;;;;;;5013770;28;20058;-73
2022/06/25 10:09:14;;;;;;;8.15;2.95;;;;;;;;;;5014135;28;20053;-75
2022/06/25 10:11:40;;;;;;;6.55;2.15;;;;;;;;;;5014192;28;20487;-72
2022/06/25 10:14:06;;;;;;;3.65;2.13;;;;;;;;;;5017752;28;20498;-72
2022/06/25 10:16:33;;;;;;;3.72;2.13;;;;;;;;;;5014552;28;20030;-73
2022/06/25 10:19:01;;;;;;;6.32;2.80;;;;;;;;;;5017476;28;20060;-73
2022/06/25 10:21:27;;;;;;;4.15;2.28;;;;;;;;;;5014201;28;20473;-73
2022/06/25 10:23:57;;;;;;;4.03;2.05;;;;;;;;;;5013013;28;20021;-74
2022/06/25 10:26:25;;;;;;;4.07;2.70;;;;;;;;;;5013988;28;20025;-73
2022/06/25 10:28:51;;;;;;;9.15;4.75;;;;;;;;;;5015344;28;20041;-72
2022/06/25 10:31:18;;;;;;;5.40;3.67;;;;;;;;;;5021800;28;20108;-73
2022/06/25 10:33:58;;;;;;;4.75;2.20;;;;;;;;;;5015605;28;20087;-73
2022/06/25 10:36:43;;;;;;;4.38;2.80;;;;;;;;;;5022593;28;20026;-72
2022/06/25 10:39:24;;;;;;;11.60;3.15;;;;;;;;;;5025514;28;20041;-72
2022/06/25 10:44:53;;;;;;;4.15;2.45;;;;;;;;;;5029552;28;20072;-73
2022/06/25 10:47:36;;;;;;;3.53;2.08;;;;;;;;;;5027500;28;20018;-73
2022/06/25 10:50:21;;;;;;;7.30;2.55;;;;;;;;;;5022991;28;20096;-72
2022/06/25 10:53:02;;;;;;;8.27;2.67;;;;;;;;;;5028284;28;20037;-72
2022/06/25 10:55:29;;;;;;;4.65;2.42;;;;;;;;;;5022487;28;20025;-72
2022/06/25 10:58:10;;;;;;;5.03;2.30;;;;;;;;;;5015206;28;20068;-74
2022/06/25 11:00:46;;;;;;;4.45;2.20;;;;;;;;;;5016011;28;20025;-73
2022/06/25 11:03:12;;;;;;;6.75;2.00;;;;;;;;;;5019321;28;20418;-74
2022/06/25 11:05:41;;;;;;;5.22;1.80;;;;;;;;;;5019188;28;20026;-73
2022/06/25 11:08:08;;;;;;;8.43;4.15;;;;;;;;;;5014079;28;20018;-73
2022/06/25 11:10:34;;;;;;;5.93;4.47;;;;;;;;;;5018447;28;20026;-74
2022/06/25 11:13:01;;;;;;;6.18;2.30;;;;;;;;;;5019186;28;20058;-74
2022/06/25 11:15:27;;;;;;;3.70;2.20;;;;;;;;;;5017247;28;20026;-72
2022/06/25 11:17:53;;;;;;;2.92;1.83;;;;;;;;;;5015821;28;20056;-75
2022/06/25 11:20:19;;;;;;;4.28;2.28;;;;;;;;;;5013387;28;20037;-73
2022/06/25 11:22:45;;;;;;;4.32;2.30;;;;;;;;;;5014424;28;20073;-72
2022/06/25 11:30:41;;;;;;;6.35;2.08;;;;;;;;;;5012966;28;20420;-72
2022/06/25 11:33:09;;;;;;;3.28;1.83;;;;;;;;;;5012552;28;20380;-72
2022/06/25 11:35:42;;;;;;;3.25;2.05;;;;;;;;;;5013136;28;20021;-72
2022/06/25 11:38:15;;;;;;;5.38;2.35;;;;;;;;;;5012908;28;20105;-74
2022/06/25 11:40:41;;;;;;;3.40;1.90;;;;;;;;;;5011330;28;20099;-72
2022/06/25 11:43:08;;;;;;;3.00;2.20;;;;;;;;;;5013269;28;20464;-73
2022/06/25 11:45:46;;;;;;;4.18;2.40;;;;;;;;;;5013739;28;20029;-73
2022/06/25 11:48:12;;;;;;;5.18;2.10;;;;;;;;;;5013468;28;20033;-74
2022/06/25 11:50:38;;;;;;;4.03;1.70;;;;;;;;;;5012406;28;20029;-72
2022/06/25 11:53:04;;;;;;;4.45;2.00;;;;;;;;;;5013036;28;20026;-73
2022/06/25 11:55:30;;;;;;;6.75;3.00;;;;;;;;;;5012768;28;20527;-72
2022/06/25 11:57:58;;;;;;;6.07;2.30;;;;;;;;;;5015404;28;20036;-70
2022/06/25 12:00:24;;;;;;;2.58;1.70;;;;;;;;;;5012954;28;20029;-72
2022/06/25 12:03:00;;;;;;;5.38;2.05;;;;;;;;;;5015380;28;20030;-73
2022/06/25 12:05:26;;;;;;;3.80;2.20;;;;;;;;;;5012170;28;20026;-72
2022/06/25 12:07:55;;;;;;;4.45;2.10;;;;;;;;;;5013145;28;20045;-72
2022/06/25 12:10:21;;;;;;;2.47;1.50;;;;;;;;;;5013194;28;20029;-72
2022/06/25 12:12:48;;;;;;;3.08;1.52;;;;;;;;;;5014972;28;20026;-72
2022/06/25 12:15:15;;;;;;;2.67;1.90;;;;;;;;;;5015535;28;20383;-73
2022/06/25 12:17:41;;;;;;;4.32;1.80;;;;;;;;;;5016052;28;20033;-73
2022/06/25 12:20:14;;;;;;;5.68;1.70;;;;;;;;;;5017755;28;20041;-72
2022/06/25 12:22:46;;;;;;;9.70;2.50;;;;;;;;;;5018241;28;20105;-73
2022/06/25 12:25:13;;;;;;;6.30;2.47;;;;;;;;;;5016641;28;20032;-72
2022/06/25 12:27:49;;;;;;;6.60;2.38;;;;;;;;;;5018100;28;20022;-73
2022/06/25 12:30:26;;;;;;;3.80;1.90;;;;;;;;;;5016075;28;20022;-71
2022/06/25 12:32:53;;;;;;;2.08;1.40;;;;;;;;;;5053919;22;20033;-78
2022/06/25 12:35:20;;;;;;;2.75;1.75;;;;;;;;;;5056290;28;20517;-76
2022/06/25 12:38:03;;;;;;;5.43;1.60;;;;;;;;;;5055815;28;20025;-77
2022/06/25 12:40:30;;;;;;;2.33;1.33;;;;;;;;;;5054864;28;20025;-77
2022/06/25 12:42:57;;;;;;;3.03;1.60;;;;;;;;;;5055548;28;20029;-76
2022/06/25 12:45:23;;;;;;;4.10;1.50;;;;;;;;;;5055726;28;20120;-80
2022/06/25 12:47:49;;;;;;;2.55;1.52;;;;;;;;;;5055477;28;20075;-79
2022/06/25 12:50:25;;;;;;;3.42;1.67;;;;;;;;;;5056188;28;20021;-75
2022/06/25 12:52:51;;;;;;;2.53;1.60;;;;;;;;;;5064867;28;20040;-79
2022/06/25 12:55:18;;;;;;;2.80;1.58;;;;;;;;;;5062437;28;20078;-78
2022/06/25 12:57:44;;;;;;;3.03;1.60;;;;;;;;;;5054409;28;20036;-77
2022/06/25 13:00:21;;;;;;;4.97;2.03;;;;;;;;;;5055962;28;20028;-77
2022/06/25 13:02:47;;;;;;;2.75;1.40;;;;;;;;;;5056620;28;20032;-77
2022/06/25 13:05:14;;;;;;;7.28;1.95;;;;;;;;;;5057082;28;20082;-76
2022/06/25 13:07:40;;;;;;;2.65;1.20;;;;;;;;;;5058261;28;20035;-76
2022/06/25 13:10:06;;;;;;;4.78;1.40;;;;;;;;;;5060708;28;20230;-77
2022/06/25 13:12:32;;;;;;;4.30;1.75;;;;;;;;;;5066182;28;20039;-78
2022/06/25 13:15:00;;;;;;;2.50;1.63;;;;;;;;;;5077004;28;20033;-77
2022/06/25 13:17:26;;;;;;;5.20;2.60;;;;;;;;;;5061573;28;20048;-75
2022/06/25 13:19:52;;;;;;;2.55;1.60;;;;;;;;;;5055133;28;20417;-77
2022/06/25 13:22:18;;;;;;;3.22;1.30;;;;;;;;;;5054954;28;20036;-77
2022/06/25 13:24:44;;;;;;;4.70;1.60;;;;;;;;;;5054621;28;20059;-78
2022/06/25 13:27:11;;;;;;;3.00;1.30;;;;;;;;;;5053671;28;20013;-77
2022/06/25 13:29:36;;;;;;;1.58;1.13;;;;;;;;;;5056596;28;20037;-77
2022/06/25 13:32:03;;;;;;;2.28;1.20;;;;;;;;;;5057102;28;20051;-79
2022/06/25 13:34:29;;;;;;;2.05;1.35;;;;;;;;;;5057364;28;20100;-76
2022/06/25 13:36:56;;;;;;;7.63;1.50;;;;;;;;;;5057580;28;20408;-77
2022/06/25 13:39:22;;;;;;;3.10;1.58;;;;;;;;;;5054152;28;20115;-78
2022/06/25 13:41:50;;;;;;;5.05;1.20;;;;;;;;;;5055306;28;20025;-77
2022/06/25 13:44:16;;;;;;;6.97;1.67;;;;;;;;;;5053777;28;20021;-76
2022/06/25 13:46:42;;;;;;;9.07;3.20;;;;;;;;;;5055330;28;20028;-78
2022/06/25 13:49:08;;;;;;;1.67;1.40;;;;;;;;;;5055102;28;20025;-76
2022/06/25 13:51:35;;;;;;;4.05;1.60;;;;;;;;;;5055102;28;20017;-76
2022/06/25 13:54:01;;;;;;;2.33;1.88;;;;;;;;;;5055681;28;20044;-78
2022/06/25 13:56:27;;;;;;;2.58;1.50;;;;;;;;;;5054420;28;20078;-78
2022/06/25 13:58:53;;;;;;;2.35;1.70;;;;;;;;;;5055515;28;20017;-77
2022/06/25 14:01:19;;;;;;;3.00;1.20;;;;;;;;;;5057304;28;20025;-79
2022/06/25 14:03:46;;;;;;;9.02;1.55;;;;;;;;;;5059184;28;20082;-76
2022/06/25 14:06:14;;;;;;;4.30;1.65;;;;;;;;;;5061154;28;20424;-77
2022/06/25 14:08:40;;;;;;;2.05;1.33;;;;;;;;;;5060898;28;20443;-76
2022/06/25 14:11:06;;;;;;;2.88;1.55;;;;;;;;;;5057281;28;20048;-77
2022/06/25 14:13:32;;;;;;;3.25;1.80;;;;;;;;;;5056045;28;20029;-77
2022/06/25 14:15:58;;;;;;;3.92;1.80;;;;;;;;;;5054490;28;20385;-79
2022/06/25 14:18:24;;;;;;;3.50;2.30;;;;;;;;;;5054651;28;20474;-77
2022/06/25 14:20:50;;;;;;;5.53;1.80;;;;;;;;;;5055157;28;20029;-77
2022/06/25 14:23:16;;;;;;;3.03;1.10;;;;;;;;;;5055435;28;20036;-77
2022/06/25 14:25:42;;;;;;;5.00;1.30;;;;;;;;;;5059870;28;20028;-77
2022/06/25 14:28:08;;;;;;;3.47;1.63;;;;;;;;;;5062608;28;20049;-75
2022/06/25 14:30:34;;;;;;;3.42;1.20;;;;;;;;;;5064389;28;20016;-76
2022/06/25 14:33:01;;;;;;;3.22;1.35;;;;;;;;;;5071515;28;20036;-76
2022/06/25 14:35:27;;;;;;;2.05;1.23;;;;;;;;;;5067025;28;20036;-76
2022/06/25 14:43:25;;;;;;;2.10;1.30;;;;;;;;;;5054197;28;20040;-77
2022/06/25 14:45:51;;;;;;;2.95;1.40;;;;;;;;;;5053082;28;20033;-78
2022/06/25 14:48:17;;;;;;;0.98;0.80;;;;;;;;;;5054439;28;20025;-78
2022/06/25 14:50:43;;;;;;;4.80;1.00;;;;;;;;;;5053047;28;20028;-77
2022/06/25 14:53:10;;;;;;;1.17;0.80;;;;;;;;;;5053464;28;20025;-77